createdAt,value
2022-12-15T00:01:11.780Z,46.18
2022-12-15T00:04:00.383Z,46.09
2022-12-15T00:06:48.573Z,46.09
2022-12-15T00:09:37.025Z,46.01
2022-12-15T00:12:25.860Z,45.94
2022-12-15T00:15:14.244Z,45.91
2022-12-15T00:18:02.576Z,45.95
2022-12-15T00:20:51.050Z,45.83
2022-12-15T00:23:39.563Z,45.73
2022-12-15T00:26:27.488Z,45.74
2022-12-15T00:29:16.088Z,45.57
2022-12-15T00:32:04.539Z,45.45
2022-12-15T00:34:52.917Z,45.37
2022-12-15T00:37:41.403Z,45.38
2022-12-15T00:40:14.076Z,45.40
2022-12-15T00:42:44.775Z,45.42
2022-12-15T00:45:20.221Z,45.36
2022-12-15T00:47:50.857Z,45.43
2022-12-15T00:50:39.058Z,45.51
2022-12-15T00:53:28.381Z,45.39
2022-12-15T00:56:16.907Z,45.26
2022-12-15T00:59:05.176Z,45.41
2022-12-15T01:01:53.321Z,45.44
2022-12-15T01:04:42.148Z,45.52
2022-12-15T01:07:30.563Z,45.47
2022-12-15T01:10:18.800Z,45.38
2022-12-15T01:13:07.547Z,45.60
2022-12-15T01:15:58.270Z,45.58
2022-12-15T01:18:49.656Z,45.63
2022-12-15T01:21:24.265Z,45.58
2022-12-15T01:23:55.971Z,45.67
2022-12-15T01:26:26.913Z,45.61
2022-12-15T01:28:57.614Z,45.73
2022-12-15T01:31:28.275Z,45.61
2022-12-15T01:33:59.145Z,45.74
2022-12-15T01:36:29.829Z,45.79
2022-12-15T01:39:00.462Z,45.84
2022-12-15T01:41:31.883Z,45.95
2022-12-15T01:44:17.895Z,45.95
2022-12-15T01:46:47.560Z,45.94
2022-12-15T01:49:22.426Z,46.06
2022-12-15T01:51:56.850Z,46.22
2022-12-15T01:54:31.967Z,46.22
2022-12-15T01:57:06.370Z,46.27
2022-12-15T01:59:43.378Z,46.33
2022-12-15T02:02:16.314Z,46.50
2022-12-15T02:04:49.386Z,46.47
2022-12-15T02:07:20.821Z,46.59
2022-12-15T02:09:53.798Z,46.54
2022-12-15T02:12:35.269Z,46.53
2022-12-15T02:15:18.355Z,46.66
2022-12-15T02:17:58.491Z,46.68
2022-12-15T02:20:45.472Z,46.76
2022-12-15T02:24:07.661Z,46.83
2022-12-15T02:27:04.649Z,46.99
2022-12-15T02:30:20.330Z,46.98
2022-12-15T02:33:09.939Z,47.02
2022-12-15T02:35:50.180Z,47.04
2022-12-15T02:38:31.629Z,46.92
2022-12-15T02:41:04.540Z,46.99
2022-12-15T02:43:40.035Z,47.11
2022-12-15T02:46:25.824Z,47.21
2022-12-15T02:49:06.275Z,47.27
2022-12-15T02:51:51.167Z,47.29
2022-12-15T02:54:36.508Z,47.30
2022-12-15T02:57:19.158Z,47.33
2022-12-15T02:59:58.847Z,47.45
2022-12-15T03:02:32.319Z,47.37
2022-12-15T03:05:03.811Z,47.21
2022-12-15T03:07:34.764Z,47.22
2022-12-15T03:10:07.453Z,47.37
2022-12-15T03:12:38.048Z,47.49
2022-12-15T03:15:10.634Z,47.69
2022-12-15T03:17:41.594Z,47.74
2022-12-15T03:20:13.429Z,47.90
2022-12-15T03:22:44.810Z,47.85
2022-12-15T03:25:15.740Z,47.87
2022-12-15T03:27:48.608Z,47.92
2022-12-15T03:30:19.414Z,48.00
2022-12-15T03:32:50.379Z,47.99
2022-12-15T03:35:21.159Z,48.08
2022-12-15T03:37:51.792Z,48.17
2022-12-15T03:40:22.592Z,48.05
2022-12-15T03:42:53.147Z,47.95
2022-12-15T03:45:25.913Z,47.90
2022-12-15T03:47:57.823Z,47.95
2022-12-15T03:50:30.698Z,47.80
2022-12-15T03:53:02.712Z,47.89
2022-12-15T03:55:35.186Z,47.96
2022-12-15T03:58:05.759Z,47.95
2022-12-15T04:00:36.823Z,48.04
2022-12-15T04:03:07.819Z,47.96
2022-12-15T04:05:38.708Z,47.98
2022-12-15T04:08:09.958Z,47.91
2022-12-15T04:10:40.539Z,48.07
2022-12-15T04:13:12.978Z,47.92
2022-12-15T04:15:43.657Z,47.93
2022-12-15T04:18:14.554Z,47.96
2022-12-15T04:20:45.271Z,47.89
2022-12-15T04:23:16.018Z,47.81
2022-12-15T04:26:04.154Z,47.78
2022-12-15T04:28:52.732Z,47.87
2022-12-15T04:31:44.790Z,47.91
2022-12-15T04:34:36.379Z,47.89
2022-12-15T04:37:28.622Z,47.89
2022-12-15T04:40:18.235Z,47.92
2022-12-15T04:43:07.442Z,47.90
2022-12-15T04:45:55.659Z,47.95
2022-12-15T04:48:44.276Z,47.88
2022-12-15T04:51:32.613Z,47.90
2022-12-15T04:54:20.849Z,47.89
2022-12-15T04:57:09.294Z,47.90
2022-12-15T04:59:57.833Z,47.88
2022-12-15T05:02:45.887Z,47.84
2022-12-15T05:05:37.807Z,47.85
2022-12-15T05:08:26.435Z,47.66
2022-12-15T05:11:17.523Z,47.52
2022-12-15T05:14:05.981Z,47.31
2022-12-15T05:16:54.456Z,47.06
2022-12-15T05:19:42.493Z,46.91
2022-12-15T05:22:31.018Z,47.00
2022-12-15T05:25:19.225Z,47.05
2022-12-15T05:28:07.769Z,47.17
2022-12-15T05:30:55.898Z,47.16
2022-12-15T05:33:26.513Z,47.16
2022-12-15T05:35:59.190Z,47.19
2022-12-15T05:38:29.934Z,47.30
2022-12-15T05:41:01.351Z,47.36
2022-12-15T05:43:32.583Z,47.35
2022-12-15T05:46:07.023Z,47.21
2022-12-15T05:48:37.695Z,47.19
2022-12-15T05:51:13.057Z,47.03
2022-12-15T05:53:44.591Z,47.03
2022-12-15T05:56:16.540Z,46.97
2022-12-15T05:58:47.393Z,46.93
2022-12-15T06:01:20.248Z,46.86
2022-12-15T06:03:51.236Z,46.82
2022-12-15T06:06:22.230Z,46.78
2022-12-15T06:08:53.146Z,46.80
2022-12-15T06:11:23.985Z,46.84
2022-12-15T06:13:55.880Z,46.67
2022-12-15T06:16:29.142Z,46.69
2022-12-15T06:19:02.117Z,46.73
2022-12-15T06:21:35.763Z,46.71
2022-12-15T06:24:08.320Z,46.84
2022-12-15T06:26:40.696Z,46.80
2022-12-15T06:29:13.296Z,46.85
2022-12-15T06:31:44.442Z,46.82
2022-12-15T06:34:16.499Z,46.68
2022-12-15T06:36:47.253Z,46.66
2022-12-15T06:39:18.778Z,46.66
2022-12-15T06:41:49.516Z,46.53
2022-12-15T06:44:20.506Z,46.44
2022-12-15T06:46:51.141Z,46.32
2022-12-15T06:49:22.032Z,46.33
2022-12-15T06:51:53.071Z,46.25
2022-12-15T06:54:23.713Z,46.11
2022-12-15T06:56:54.780Z,46.07
2022-12-15T06:59:25.608Z,46.04
2022-12-15T07:01:56.348Z,45.91
2022-12-15T07:04:27.336Z,45.89
2022-12-15T07:06:58.130Z,45.83
2022-12-15T07:09:28.858Z,45.84
2022-12-15T07:11:59.638Z,45.71
2022-12-15T07:14:32.343Z,45.86
2022-12-15T07:17:02.944Z,45.75
2022-12-15T07:19:33.654Z,45.77
2022-12-15T07:22:04.611Z,45.83
2022-12-15T07:24:35.333Z,45.75
2022-12-15T07:27:06.192Z,45.73
2022-12-15T07:29:36.934Z,45.69
2022-12-15T07:32:08.458Z,45.70
2022-12-15T07:34:39.102Z,45.70
2022-12-15T07:37:09.792Z,45.71
2022-12-15T07:39:40.393Z,45.66
2022-12-15T07:42:11.032Z,45.66
2022-12-15T07:44:41.629Z,45.64
2022-12-15T07:47:12.262Z,45.59
2022-12-15T07:49:43.444Z,45.53
2022-12-15T07:52:14.866Z,45.53
2022-12-15T07:54:45.515Z,45.53
2022-12-15T07:57:16.225Z,45.51
2022-12-15T07:59:47.553Z,45.42
2022-12-15T08:02:19.191Z,45.47
2022-12-15T08:04:50.004Z,45.46
2022-12-15T08:07:20.645Z,45.38
2022-12-15T08:09:51.273Z,45.41
2022-12-15T08:12:21.911Z,45.42
2022-12-15T08:14:52.491Z,45.46
2022-12-15T08:17:23.144Z,45.44
2022-12-15T08:19:58.630Z,45.35
2022-12-15T08:22:29.503Z,45.32
2022-12-15T08:25:00.126Z,45.17
2022-12-15T08:27:31.043Z,45.23
2022-12-15T08:30:01.683Z,45.21
2022-12-15T08:32:32.312Z,45.13
2022-12-15T08:35:03.070Z,45.22
2022-12-15T08:37:33.686Z,45.01
2022-12-15T08:40:05.036Z,45.10
2022-12-15T08:42:37.753Z,45.02
2022-12-15T08:45:10.654Z,45.06
2022-12-15T08:47:41.448Z,45.03
2022-12-15T08:50:12.696Z,45.05
2022-12-15T08:53:00.609Z,44.93
2022-12-15T08:55:31.568Z,44.95
2022-12-15T08:58:02.280Z,44.85
2022-12-15T09:00:32.909Z,44.95
2022-12-15T09:03:03.505Z,44.98
2022-12-15T09:05:37.393Z,44.92
2022-12-15T09:08:08.709Z,44.89
2022-12-15T09:10:43.046Z,44.87
2022-12-15T09:13:13.679Z,44.94
2022-12-15T09:16:08.846Z,44.96
2022-12-15T09:18:35.123Z,44.83
2022-12-15T09:21:07.815Z,45.02
2022-12-15T09:23:38.835Z,44.77
2022-12-15T09:26:11.768Z,44.84
2022-12-15T09:28:43.905Z,44.92
2022-12-15T09:31:16.771Z,44.88
2022-12-15T09:33:48.177Z,44.82
2022-12-15T09:36:19.190Z,44.76
2022-12-15T09:38:50.225Z,44.75
2022-12-15T09:41:24.765Z,44.90
2022-12-15T09:43:59.774Z,44.91
2022-12-15T09:46:41.253Z,44.92
2022-12-15T09:49:21.259Z,45.00
2022-12-15T09:51:52.885Z,44.94
2022-12-15T09:54:26.272Z,45.15
2022-12-15T09:56:59.168Z,44.96
2022-12-15T09:59:34.985Z,45.04
2022-12-15T10:02:29.458Z,44.93
2022-12-15T10:05:14.298Z,44.85
2022-12-15T10:07:50.448Z,44.99
2022-12-15T10:10:30.495Z,44.87
2022-12-15T10:13:07.385Z,44.90
2022-12-15T10:15:50.112Z,44.91
2022-12-15T10:18:28.013Z,44.93
2022-12-15T10:21:01.466Z,44.81
2022-12-15T10:23:34.464Z,44.81
2022-12-15T10:26:22.513Z,44.80
2022-12-15T10:29:15.203Z,44.83
2022-12-15T10:31:53.382Z,44.67
2022-12-15T10:34:30.073Z,44.68
2022-12-15T10:37:01.227Z,44.75
2022-12-15T10:39:41.714Z,44.66
2022-12-15T10:42:21.870Z,44.71
2022-12-15T10:44:54.926Z,44.58
2022-12-15T10:47:28.943Z,44.64
2022-12-15T10:50:24.953Z,44.55
2022-12-15T10:52:56.133Z,44.57
2022-12-15T10:55:38.093Z,44.57
2022-12-15T10:58:23.571Z,44.48
2022-12-15T11:01:09.718Z,44.60
2022-12-15T11:03:41.471Z,44.52
2022-12-15T11:06:19.070Z,44.43
2022-12-15T11:08:51.516Z,44.49
2022-12-15T11:11:48.658Z,44.52
2022-12-15T11:14:24.319Z,44.49
2022-12-15T11:16:57.793Z,44.32
2022-12-15T11:19:37.652Z,44.51
2022-12-15T11:22:11.985Z,44.40
2022-12-15T11:24:50.545Z,44.34
2022-12-15T11:27:28.260Z,44.31
2022-12-15T11:30:05.677Z,44.37
2022-12-15T11:32:38.883Z,44.49
2022-12-15T11:35:15.173Z,44.35
2022-12-15T11:37:49.535Z,44.40
2022-12-15T11:40:39.120Z,44.46
2022-12-15T11:43:28.409Z,44.39
2022-12-15T11:46:17.353Z,44.33
2022-12-15T11:49:02.885Z,44.29
2022-12-15T11:51:39.764Z,44.33
2022-12-15T11:54:20.762Z,44.31
2022-12-15T11:56:57.163Z,44.18
2022-12-15T11:59:56.201Z,44.29
2022-12-15T12:02:45.368Z,44.26
2022-12-15T12:05:37.906Z,44.27
2022-12-15T12:08:24.088Z,44.25
2022-12-15T12:11:03.390Z,44.29
2022-12-15T12:13:45.243Z,44.34
2022-12-15T12:16:29.361Z,44.24
2022-12-15T12:19:06.764Z,44.29
2022-12-15T12:21:41.726Z,44.22
2022-12-15T12:24:20.051Z,44.24
2022-12-15T12:26:58.025Z,44.29
2022-12-15T12:29:36.314Z,44.22
2022-12-15T12:32:15.945Z,44.15
2022-12-15T12:35:31.312Z,44.29
2022-12-15T12:38:01.292Z,44.26
2022-12-15T12:40:47.484Z,44.29
2022-12-15T12:43:32.105Z,44.17
2022-12-15T12:46:08.828Z,44.17
2022-12-15T12:48:42.761Z,44.14
2022-12-15T12:51:23.320Z,44.23
2022-12-15T12:53:54.678Z,44.27
2022-12-15T12:56:41.585Z,44.28
2022-12-15T12:59:43.039Z,44.32
2022-12-15T13:02:50.409Z,44.14
2022-12-15T13:05:34.163Z,44.13
2022-12-15T13:08:29.687Z,44.29
2022-12-15T13:11:38.531Z,44.11
2022-12-15T13:14:24.103Z,44.25
2022-12-15T13:20:25.985Z,44.27
2022-12-15T13:23:17.864Z,44.23
2022-12-15T13:26:03.374Z,44.28
2022-12-15T13:28:45.900Z,44.24
2022-12-15T13:31:55.792Z,44.24
2022-12-15T13:34:29.489Z,44.32
2022-12-15T13:37:02.224Z,44.31
2022-12-15T13:39:56.964Z,44.38
2022-12-15T13:42:53.080Z,44.41
2022-12-15T13:45:43.123Z,44.39
2022-12-15T13:48:31.862Z,44.32
2022-12-15T13:51:23.167Z,44.33
2022-12-15T13:53:57.405Z,44.43
2022-12-15T13:56:46.115Z,44.41
2022-12-15T13:59:25.946Z,44.33
2022-12-15T14:01:55.192Z,44.30
2022-12-15T14:04:26.679Z,44.43
2022-12-15T14:06:59.495Z,44.35
2022-12-15T14:09:33.959Z,44.40
2022-12-15T14:12:09.651Z,44.40
2022-12-15T14:14:49.051Z,44.40
2022-12-15T14:17:21.384Z,44.40
2022-12-15T14:19:53.059Z,44.41
2022-12-15T14:22:29.351Z,44.44
2022-12-15T14:25:14.341Z,44.40
2022-12-15T14:27:45.075Z,44.39
2022-12-15T14:30:29.352Z,44.43
2022-12-15T14:33:08.251Z,44.35
2022-12-15T14:35:41.648Z,44.45
2022-12-15T14:38:18.565Z,44.40
2022-12-15T14:40:53.153Z,44.46
2022-12-15T14:43:26.023Z,44.43
2022-12-15T14:45:58.238Z,44.46
2022-12-15T14:48:42.558Z,44.40
2022-12-15T14:51:15.225Z,44.41
2022-12-15T14:53:53.216Z,44.35
2022-12-15T14:56:31.960Z,44.32
2022-12-15T14:59:04.997Z,44.36
2022-12-15T15:01:41.281Z,44.39
2022-12-15T15:04:29.216Z,44.32
2022-12-15T15:07:02.490Z,44.32
2022-12-15T15:09:39.232Z,44.43
2022-12-15T15:12:14.902Z,44.49
2022-12-15T15:14:47.919Z,44.56
2022-12-15T15:17:26.784Z,44.64
2022-12-15T15:20:00.755Z,44.59
2022-12-15T15:22:43.993Z,44.48
2022-12-15T15:25:36.179Z,44.54
2022-12-15T15:28:22.423Z,44.56
2022-12-15T15:30:56.589Z,44.58
2022-12-15T15:33:28.407Z,44.43
2022-12-15T15:36:00.994Z,44.40
2022-12-15T15:38:35.152Z,44.45
2022-12-15T15:41:18.398Z,44.36
2022-12-15T15:43:49.472Z,44.38
2022-12-15T15:46:23.856Z,44.29
2022-12-15T15:48:57.317Z,44.30
2022-12-15T15:51:30.284Z,44.35
2022-12-15T15:54:04.642Z,44.33
2022-12-15T15:56:35.760Z,44.24
2022-12-15T15:59:14.883Z,44.24
2022-12-15T16:01:48.680Z,44.32
2022-12-15T16:04:19.592Z,44.20
2022-12-15T16:06:50.306Z,44.26
2022-12-15T16:09:21.373Z,44.24
2022-12-15T16:11:52.418Z,44.18
2022-12-15T16:14:23.187Z,44.25
2022-12-15T16:16:54.831Z,44.26
2022-12-15T16:19:28.674Z,44.29
2022-12-15T16:21:59.789Z,44.36
2022-12-15T16:24:30.650Z,44.27
2022-12-15T16:27:02.694Z,44.27
2022-12-15T16:29:33.657Z,44.45
2022-12-15T16:32:05.819Z,44.48
2022-12-15T16:34:37.088Z,44.38
2022-12-15T16:37:15.553Z,44.36
2022-12-15T16:39:46.302Z,44.46
2022-12-15T16:42:16.982Z,44.45
2022-12-15T16:44:48.650Z,44.39
2022-12-15T16:47:19.467Z,44.19
2022-12-15T16:49:50.258Z,44.40
2022-12-15T16:52:24.171Z,44.25
2022-12-15T16:54:55.529Z,44.26
2022-12-15T16:57:26.524Z,44.30
2022-12-15T16:59:57.368Z,44.40
2022-12-15T17:02:30.476Z,44.29
2022-12-15T17:05:01.901Z,44.37
2022-12-15T17:07:33.148Z,44.44
2022-12-15T17:10:05.091Z,44.35
2022-12-15T17:12:36.053Z,44.27
2022-12-15T17:15:16.953Z,44.31
2022-12-15T17:17:48.007Z,44.39
2022-12-15T17:20:31.577Z,44.31
2022-12-15T17:23:08.213Z,44.32
2022-12-15T17:28:36.720Z,44.29
2022-12-15T17:31:14.904Z,44.38
2022-12-15T17:33:46.159Z,44.29
2022-12-15T17:36:20.138Z,44.24
2022-12-15T17:38:54.920Z,44.31
2022-12-15T17:41:58.044Z,44.26
2022-12-15T17:44:39.312Z,44.37
2022-12-15T17:47:11.020Z,44.37
2022-12-15T17:49:42.390Z,44.24
2022-12-15T17:52:27.482Z,44.21
2022-12-15T17:54:58.967Z,44.17
2022-12-15T17:57:31.953Z,44.21
2022-12-15T18:00:04.006Z,44.19
2022-12-15T18:02:36.342Z,44.11
2022-12-15T18:05:09.693Z,44.17
2022-12-15T18:07:40.556Z,44.12
2022-12-15T18:10:23.275Z,44.19
2022-12-15T18:12:54.306Z,44.13
2022-12-15T18:15:27.365Z,44.13
2022-12-15T18:18:00.416Z,44.05
2022-12-15T18:20:31.337Z,43.94
2022-12-15T18:23:02.463Z,43.79
2022-12-15T18:25:34.763Z,43.45
2022-12-15T18:28:17.543Z,43.41
2022-12-15T18:30:48.989Z,43.24
2022-12-15T18:33:20.060Z,43.35
2022-12-15T18:35:52.710Z,43.37
2022-12-15T18:38:25.093Z,43.38
2022-12-15T18:40:58.686Z,43.44
2022-12-15T18:43:32.585Z,43.49
2022-12-15T18:46:03.871Z,43.59
2022-12-15T18:48:36.324Z,43.78
2022-12-15T18:51:18.213Z,43.73
2022-12-15T18:53:49.847Z,43.74
2022-12-15T18:56:21.866Z,43.89
2022-12-15T18:58:52.788Z,43.96
2022-12-15T19:01:23.769Z,43.90
2022-12-15T19:03:54.715Z,43.91
2022-12-15T19:06:35.141Z,44.03
2022-12-15T19:09:07.964Z,44.13
2022-12-15T19:11:38.993Z,44.33
2022-12-15T19:14:36.406Z,44.21
2022-12-15T19:17:26.688Z,44.12
2022-12-15T19:20:15.339Z,44.20
2022-12-15T19:22:48.264Z,44.07
2022-12-15T19:25:25.783Z,44.19
2022-12-15T19:27:59.386Z,44.25
2022-12-15T19:30:40.216Z,44.08
2022-12-15T19:33:13.828Z,44.26
2022-12-15T19:35:46.772Z,44.25
2022-12-15T19:38:24.114Z,44.39
2022-12-15T19:40:56.255Z,44.27
2022-12-15T19:43:27.983Z,44.46
2022-12-15T19:46:01.973Z,44.48
2022-12-15T19:48:32.974Z,44.53
2022-12-15T19:51:03.796Z,44.72
2022-12-15T19:53:36.450Z,44.85
2022-12-15T19:56:08.908Z,44.88
2022-12-15T19:58:40.156Z,45.17
2022-12-15T20:01:14.735Z,45.10
2022-12-15T20:03:47.224Z,45.21
2022-12-15T20:06:20.810Z,45.30
2022-12-15T20:08:54.802Z,45.27
2022-12-15T20:11:29.894Z,45.37
2022-12-15T20:14:10.868Z,45.46
2022-12-15T20:16:42.147Z,45.41
2022-12-15T20:19:13.482Z,45.63
2022-12-15T20:21:44.729Z,45.48
2022-12-15T20:24:19.312Z,45.47
2022-12-15T20:26:50.559Z,45.54
2022-12-15T20:29:25.899Z,45.65
2022-12-15T20:31:57.893Z,45.62
2022-12-15T20:34:28.905Z,45.60
2022-12-15T20:36:59.852Z,45.52
2022-12-15T20:39:32.402Z,45.50
2022-12-15T20:42:06.075Z,45.55
2022-12-15T20:44:36.980Z,45.62
2022-12-15T20:47:08.740Z,45.65
2022-12-15T20:49:40.052Z,45.59
2022-12-15T20:52:20.119Z,45.76
2022-12-15T20:54:51.587Z,45.71
2022-12-15T20:57:22.763Z,45.55
2022-12-15T20:59:53.700Z,45.69
2022-12-15T21:02:25.484Z,45.71
2022-12-15T21:04:56.385Z,45.68
2022-12-15T21:07:27.134Z,45.75
2022-12-15T21:09:57.971Z,45.66
2022-12-15T21:12:29.962Z,45.70
2022-12-15T21:15:00.782Z,45.77
2022-12-15T21:17:31.930Z,45.70
2022-12-15T21:20:02.726Z,45.92
2022-12-15T21:22:33.684Z,45.76
2022-12-15T21:25:07.025Z,45.75
2022-12-15T21:27:38.123Z,45.70
2022-12-15T21:30:20.637Z,45.91
2022-12-15T21:32:52.013Z,45.89
2022-12-15T21:35:26.140Z,45.84
2022-12-15T21:37:59.735Z,45.80
2022-12-15T21:40:30.629Z,45.66
2022-12-15T21:43:03.531Z,45.65
2022-12-15T21:45:34.491Z,45.64
2022-12-15T21:48:23.044Z,45.53
2022-12-15T21:50:53.941Z,45.50
2022-12-15T21:53:25.843Z,45.44
2022-12-15T21:56:00.264Z,45.47
2022-12-15T21:58:31.314Z,45.62
2022-12-15T22:01:03.392Z,45.69
2022-12-15T22:03:34.375Z,45.57
2022-12-15T22:06:05.182Z,45.65
2022-12-15T22:08:36.130Z,45.77
2022-12-15T22:11:13.669Z,45.64
2022-12-15T22:13:45.806Z,45.78
2022-12-15T22:16:16.529Z,45.72
2022-12-15T22:18:50.721Z,45.83
2022-12-15T22:21:22.824Z,45.80
2022-12-15T22:23:53.689Z,45.97
2022-12-15T22:26:29.907Z,45.93
2022-12-15T22:29:03.055Z,46.10
2022-12-15T22:31:33.759Z,46.13
2022-12-15T22:34:11.006Z,46.11
2022-12-15T22:36:41.778Z,46.11
2022-12-15T22:39:12.444Z,46.09
2022-12-15T22:41:45.580Z,46.13
2022-12-15T22:44:20.765Z,46.21
2022-12-15T22:46:52.733Z,46.20
2022-12-15T22:49:27.784Z,46.27
2022-12-15T22:51:58.447Z,46.19
2022-12-15T22:54:30.698Z,46.12
2022-12-15T22:57:05.392Z,46.20
2022-12-15T22:59:41.329Z,46.26
2022-12-15T23:02:12.777Z,46.32
2022-12-15T23:04:43.502Z,46.26
2022-12-15T23:07:14.564Z,46.19
2022-12-15T23:09:45.280Z,46.16
2022-12-15T23:12:16.121Z,46.15
2022-12-15T23:15:04.456Z,46.29
2022-12-15T23:17:35.040Z,46.23
2022-12-15T23:20:06.519Z,46.38
2022-12-15T23:22:37.153Z,46.47
2022-12-15T23:25:09.230Z,46.56
2022-12-15T23:27:39.982Z,46.66
2022-12-15T23:30:12.800Z,46.67
2022-12-15T23:32:43.417Z,46.61
2022-12-15T23:35:14.450Z,46.68
2022-12-15T23:37:45.260Z,46.67
2022-12-15T23:40:21.480Z,46.66
2022-12-15T23:42:52.446Z,46.77
2022-12-15T23:45:23.304Z,46.52
2022-12-15T23:47:54.046Z,46.42
2022-12-15T23:50:24.813Z,46.45
2022-12-15T23:52:55.516Z,46.36
2022-12-15T23:55:26.184Z,46.23
2022-12-15T23:57:57.742Z,46.41
